sensor_id;sensor_type;location;lat;lon;timestamp;pressure;altitude;pressure_sealevel;temperature;humidity
22206;BME280;11272;50.104;8.754;2024-03-22T06:55:49;100997.13;;;12.76;62.59
22206;BME280;11272;50.104;8.754;2024-03-22T06:58:18;101007.56;;;12.85;62.39
22206;BME280;11272;50.104;8.754;2024-03-22T07:00:51;101005.59;;;12.93;62.03
22206;BME280;11272;50.104;8.754;2024-03-22T07:03:19;101013.47;;;12.99;61.94
22206;BME280;11272;50.104;8.754;2024-03-22T07:05:47;101005.28;;;13.08;61.86
22206;BME280;11272;50.104;8.754;2024-03-22T07:11:05;100991.75;;;13.19;61.50
22206;BME280;11272;50.104;8.754;2024-03-22T07:13:30;100991.63;;;13.25;61.52
22206;BME280;11272;50.104;8.754;2024-03-22T09:17:23;100875.75;;;15.70;57.71
22206;BME280;11272;50.104;8.754;2024-03-22T09:19:51;100871.47;;;15.89;57.33
22206;BME280;11272;50.104;8.754;2024-03-22T09:22:17;100874.41;;;16.06;56.69
22206;BME280;11272;50.104;8.754;2024-03-22T09:24:45;100868.47;;;16.21;56.56
22206;BME280;11272;50.104;8.754;2024-03-22T09:27:13;100860.72;;;16.37;55.98
22206;BME280;11272;50.104;8.754;2024-03-22T09:29:41;100861.44;;;16.42;55.66
22206;BME280;11272;50.104;8.754;2024-03-22T09:32:09;100855.97;;;16.45;55.28
22206;BME280;11272;50.104;8.754;2024-03-22T09:34:38;100853.97;;;16.50;55.08
22206;BME280;11272;50.104;8.754;2024-03-22T09:37:08;100851.03;;;16.56;54.85
22206;BME280;11272;50.104;8.754;2024-03-22T09:39:36;100850.81;;;16.62;54.69
22206;BME280;11272;50.104;8.754;2024-03-22T09:42:08;100836.94;;;16.74;54.66
22206;BME280;11272;50.104;8.754;2024-03-22T10:05:10;100819.09;;;17.57;52.99
22206;BME280;11272;50.104;8.754;2024-03-22T10:07:38;100811.34;;;17.72;52.31
22206;BME280;11272;50.104;8.754;2024-03-22T10:10:04;100804.81;;;17.77;52.21
22206;BME280;11272;50.104;8.754;2024-03-22T10:12:32;100801.63;;;17.88;51.86
22206;BME280;11272;50.104;8.754;2024-03-22T10:15:00;100803.63;;;18.03;51.65
22206;BME280;11272;50.104;8.754;2024-03-22T10:17:34;100788.38;;;18.22;51.61
22206;BME280;11272;50.104;8.754;2024-03-22T10:20:03;100778.63;;;18.38;51.12
22206;BME280;11272;50.104;8.754;2024-03-22T10:22:55;100777.09;;;18.51;50.62
22206;BME280;11272;50.104;8.754;2024-03-22T10:25:22;100782.53;;;18.50;50.15
22206;BME280;11272;50.104;8.754;2024-03-22T10:27:50;100782.94;;;18.61;50.09
22206;BME280;11272;50.104;8.754;2024-03-22T10:30:16;100770.63;;;18.74;49.73
22206;BME280;11272;50.104;8.754;2024-03-22T10:32:43;100764.84;;;18.82;49.38
22206;BME280;11272;50.104;8.754;2024-03-22T10:35:20;100761.06;;;19.03;49.38
22206;BME280;11272;50.104;8.754;2024-03-22T10:37:46;100750.47;;;19.52;49.25
22206;BME280;11272;50.104;8.754;2024-03-22T10:40:14;100747.63;;;20.03;48.24
22206;BME280;11272;50.104;8.754;2024-03-22T10:42:41;100747.16;;;20.59;47.74
22206;BME280;11272;50.104;8.754;2024-03-22T10:45:09;100736.75;;;20.99;46.85
22206;BME280;11272;50.104;8.754;2024-03-22T10:47:37;100733.69;;;21.35;45.76
22206;BME280;11272;50.104;8.754;2024-03-22T10:50:11;100728.69;;;21.71;45.27
22206;BME280;11272;50.104;8.754;2024-03-22T10:52:40;100720.19;;;21.92;44.41
22206;BME280;11272;50.104;8.754;2024-03-22T10:55:18;100709.16;;;22.23;44.23
22206;BME280;11272;50.104;8.754;2024-03-22T10:57:47;100705.88;;;22.32;43.30
22206;BME280;11272;50.104;8.754;2024-03-22T11:00:13;100700.88;;;22.12;43.06
22206;BME280;11272;50.104;8.754;2024-03-22T11:03:01;100702.53;;;22.00;43.38
22206;BME280;11272;50.104;8.754;2024-03-22T11:05:30;100706.09;;;21.87;42.51
22206;BME280;11272;50.104;8.754;2024-03-22T11:10:51;100688.31;;;21.82;42.97
22206;BME280;11272;50.104;8.754;2024-03-22T11:13:17;100684.44;;;22.15;42.78
22206;BME280;11272;50.104;8.754;2024-03-22T11:15:51;100686.31;;;22.41;42.61
22206;BME280;11272;50.104;8.754;2024-03-22T11:18:17;100685.66;;;22.64;42.17
22206;BME280;11272;50.104;8.754;2024-03-22T11:20:43;100675.47;;;22.95;41.51
22206;BME280;11272;50.104;8.754;2024-03-22T11:23:11;100669.63;;;23.14;41.14
22206;BME280;11272;50.104;8.754;2024-03-22T11:25:39;100669.41;;;23.29;40.48
22206;BME280;11272;50.104;8.754;2024-03-22T11:28:05;100660.09;;;23.33;40.42
22206;BME280;11272;50.104;8.754;2024-03-22T11:30:33;100642.66;;;23.63;40.40
22206;BME280;11272;50.104;8.754;2024-03-22T11:33:02;100642.13;;;23.94;40.11
22206;BME280;11272;50.104;8.754;2024-03-22T11:35:28;100635.13;;;24.15;39.91
22206;BME280;11272;50.104;8.754;2024-03-22T11:37:53;100632.91;;;24.09;39.17
22206;BME280;11272;50.104;8.754;2024-03-22T11:40:20;100621.66;;;23.90;39.11
22206;BME280;11272;50.104;8.754;2024-03-22T11:45:39;100619.69;;;23.56;39.29
22206;BME280;11272;50.104;8.754;2024-03-22T11:48:05;100622.16;;;23.46;39.49
22206;BME280;11272;50.104;8.754;2024-03-22T11:50:37;100617.59;;;23.34;39.49
22206;BME280;11272;50.104;8.754;2024-03-22T11:53:05;100611.63;;;23.16;39.52
22206;BME280;11272;50.104;8.754;2024-03-22T11:55:35;100615.81;;;22.82;39.89
22206;BME280;11272;50.104;8.754;2024-03-22T11:58:31;100605.06;;;22.68;40.36
22206;BME280;11272;50.104;8.754;2024-03-22T12:01:02;100607.31;;;22.61;40.40
22206;BME280;11272;50.104;8.754;2024-03-22T12:03:28;100602.53;;;22.52;40.61
22206;BME280;11272;50.104;8.754;2024-03-22T13:39:10;100471.63;;;22.01;41.63
22206;BME280;11272;50.104;8.754;2024-03-22T15:22:23;100312.41;;;20.36;44.98
22206;BME280;11272;50.104;8.754;2024-03-22T15:27:38;100301.03;;;20.45;44.85
22206;BME280;11272;50.104;8.754;2024-03-22T15:30:05;100302.56;;;20.49;44.70
22206;BME280;11272;50.104;8.754;2024-03-22T15:32:37;100288.31;;;20.47;44.88
22206;BME280;11272;50.104;8.754;2024-03-22T15:35:03;100286.00;;;20.55;44.52
22206;BME280;11272;50.104;8.754;2024-03-22T15:37:29;100293.31;;;20.53;44.64
22206;BME280;11272;50.104;8.754;2024-03-22T15:39:57;100287.91;;;20.53;44.59
22206;BME280;11272;50.104;8.754;2024-03-22T15:42:30;100285.03;;;20.56;44.58
22206;BME280;11272;50.104;8.754;2024-03-22T16:33:10;100219.34;;;20.43;45.25
22206;BME280;11272;50.104;8.754;2024-03-22T16:41:55;100199.09;;;20.36;45.55
22206;BME280;11272;50.104;8.754;2024-03-22T16:50:03;100203.66;;;20.21;45.91
22206;BME280;11272;50.104;8.754;2024-03-22T16:52:28;100208.56;;;20.14;46.00
22206;BME280;11272;50.104;8.754;2024-03-22T16:55:00;100198.94;;;20.10;45.99
22206;BME280;11272;50.104;8.754;2024-03-22T16:57:28;100197.41;;;20.06;46.06
22206;BME280;11272;50.104;8.754;2024-03-22T17:00:06;100206.84;;;19.99;46.21
22206;BME280;11272;50.104;8.754;2024-03-22T17:05:17;100199.75;;;19.84;46.29
22206;BME280;11272;50.104;8.754;2024-03-22T17:07:43;100195.69;;;19.77;46.96
22206;BME280;11272;50.104;8.754;2024-03-22T17:10:09;100192.53;;;19.70;46.51
22206;BME280;11272;50.104;8.754;2024-03-22T17:12:37;100190.13;;;19.66;46.61
22206;BME280;11272;50.104;8.754;2024-03-22T17:15:08;100188.00;;;19.57;46.64
22206;BME280;11272;50.104;8.754;2024-03-22T17:17:36;100188.38;;;19.51;46.79
22206;BME280;11272;50.104;8.754;2024-03-22T17:20:04;100194.22;;;19.43;46.84
22206;BME280;11272;50.104;8.754;2024-03-22T17:22:32;100183.91;;;19.35;46.89
22206;BME280;11272;50.104;8.754;2024-03-22T17:24:58;100181.72;;;19.28;47.04
22206;BME280;11272;50.104;8.754;2024-03-22T17:27:25;100187.47;;;19.22;46.95
22206;BME280;11272;50.104;8.754;2024-03-22T17:29:51;100186.09;;;19.15;47.12
22206;BME280;11272;50.104;8.754;2024-03-22T17:32:17;100182.16;;;19.06;47.38
22206;BME280;11272;50.104;8.754;2024-03-22T17:34:43;100180.97;;;18.96;47.46
22206;BME280;11272;50.104;8.754;2024-03-22T17:37:09;100176.97;;;18.87;47.57
22206;BME280;11272;50.104;8.754;2024-03-22T17:39:35;100179.28;;;18.79;47.87
22206;BME280;11272;50.104;8.754;2024-03-22T17:42:01;100173.56;;;18.70;48.05
22206;BME280;11272;50.104;8.754;2024-03-22T17:44:29;100175.91;;;18.60;48.12
22206;BME280;11272;50.104;8.754;2024-03-22T17:46:56;100175.47;;;18.52;48.24
22206;BME280;11272;50.104;8.754;2024-03-22T17:49:24;100178.59;;;18.44;48.39
22206;BME280;11272;50.104;8.754;2024-03-22T17:54:40;100175.94;;;18.29;48.72
22206;BME280;11272;50.104;8.754;2024-03-22T18:03:01;100171.16;;;18.02;49.24
22206;BME280;11272;50.104;8.754;2024-03-22T18:05:29;100172.56;;;17.94;49.28
22206;BME280;11272;50.104;8.754;2024-03-22T18:16:43;100166.97;;;17.65;49.93
22206;BME280;11272;50.104;8.754;2024-03-22T18:27:38;100152.53;;;17.51;50.43
22206;BME280;11272;50.104;8.754;2024-03-22T19:00:30;100116.59;;;16.70;52.50
